createdAt,value
2023-05-11T00:00:19.481Z,10.55
2023-05-11T00:02:47.218Z,10.55
2023-05-11T00:05:14.744Z,11.65
2023-05-11T00:07:42.106Z,12.82
2023-05-11T00:10:09.983Z,11.52
2023-05-11T00:12:37.307Z,10.10
2023-05-11T00:15:04.826Z,11.20
2023-05-11T00:17:32.339Z,13.52
2023-05-11T00:19:59.972Z,11.90
2023-05-11T00:22:27.788Z,12.65
2023-05-11T00:24:55.121Z,14.27
2023-05-11T00:27:22.546Z,15.77
2023-05-11T00:29:50.380Z,12.15
2023-05-11T00:32:17.734Z,15.48
2023-05-11T00:34:45.479Z,15.07
2023-05-11T00:37:12.907Z,16.52
2023-05-11T00:39:40.868Z,13.25
2023-05-11T00:42:08.288Z,13.20
2023-05-11T00:44:35.598Z,12.90
2023-05-11T00:47:03.585Z,12.02
2023-05-11T00:49:31.448Z,17.88
2023-05-11T00:52:03.158Z,14.32
2023-05-11T00:54:31.880Z,16.45
2023-05-11T00:56:59.277Z,14.63
2023-05-11T00:59:27.457Z,15.98
2023-05-11T01:01:55.022Z,14.07
2023-05-11T01:04:22.307Z,15.82
2023-05-11T01:06:56.689Z,15.85
2023-05-11T01:09:54.753Z,17.63
2023-05-11T01:12:42.827Z,18.60
2023-05-11T01:15:20.741Z,19.10
2023-05-11T01:18:03.775Z,15.90
2023-05-11T01:20:31.666Z,16.05
2023-05-11T01:23:41.432Z,15.90
2023-05-11T01:26:30.560Z,18.08
2023-05-11T01:29:30.153Z,18.42
2023-05-11T01:31:59.095Z,20.25
2023-05-11T01:34:31.512Z,20.35
2023-05-11T01:37:21.768Z,21.80
2023-05-11T01:39:58.550Z,23.23
2023-05-11T01:42:39.205Z,23.23
2023-05-11T01:45:08.508Z,25.98
2023-05-11T01:47:37.628Z,29.75
2023-05-11T01:50:07.140Z,23.88
2023-05-11T01:52:36.215Z,25.95
2023-05-11T01:55:06.744Z,33.00
2023-05-11T01:57:37.021Z,32.55
2023-05-11T02:00:05.178Z,28.08
2023-05-11T02:02:34.026Z,29.23
2023-05-11T02:05:02.426Z,28.45
2023-05-11T02:07:32.282Z,30.40
2023-05-11T02:10:00.836Z,36.38
2023-05-11T02:12:29.140Z,37.13
2023-05-11T02:14:59.056Z,34.78
2023-05-11T02:17:27.461Z,37.25
2023-05-11T02:19:55.926Z,41.83
2023-05-11T02:22:24.750Z,39.63
2023-05-11T02:24:52.374Z,43.28
2023-05-11T02:27:19.708Z,39.95
2023-05-11T02:29:47.285Z,42.67
2023-05-11T02:32:19.785Z,41.65
2023-05-11T02:34:55.917Z,50.22
2023-05-11T02:37:25.936Z,52.35
2023-05-11T02:40:02.875Z,48.97
2023-05-11T02:42:33.140Z,48.30
2023-05-11T02:45:08.205Z,48.13
2023-05-11T02:47:52.855Z,48.85
2023-05-11T02:50:23.048Z,48.55
2023-05-11T02:52:54.363Z,53.30
2023-05-11T02:55:23.967Z,57.63
2023-05-11T02:57:51.694Z,53.05
2023-05-11T03:00:19.376Z,52.58
2023-05-11T03:02:47.276Z,52.95
2023-05-11T03:05:14.880Z,56.55
2023-05-11T03:07:43.845Z,54.08
2023-05-11T03:10:12.228Z,58.30
2023-05-11T03:12:39.977Z,66.63
2023-05-11T03:15:08.796Z,55.58
2023-05-11T03:17:37.401Z,60.65
2023-05-11T03:20:06.420Z,60.53
2023-05-11T03:22:35.072Z,61.78
2023-05-11T03:25:04.295Z,56.92
2023-05-11T03:27:33.774Z,66.38
2023-05-11T03:30:03.333Z,57.78
2023-05-11T03:32:30.808Z,67.22
2023-05-11T03:34:58.102Z,59.20
2023-05-11T03:37:25.876Z,64.38
2023-05-11T03:39:58.434Z,67.03
2023-05-11T03:42:29.765Z,68.28
2023-05-11T03:45:01.633Z,65.82
2023-05-11T03:47:30.023Z,69.70
2023-05-11T03:49:58.855Z,78.05
2023-05-11T03:52:27.181Z,69.55
2023-05-11T03:54:54.819Z,58.15
2023-05-11T03:57:25.339Z,66.43
2023-05-11T03:59:53.256Z,66.63
2023-05-11T04:02:20.763Z,68.88
2023-05-11T04:04:48.037Z,69.35
2023-05-11T04:07:15.910Z,73.28
2023-05-11T04:09:43.172Z,75.72
2023-05-11T04:12:10.766Z,76.07
2023-05-11T04:14:37.976Z,75.35
2023-05-11T04:17:05.322Z,69.75
2023-05-11T04:19:32.749Z,70.88
2023-05-11T04:22:00.115Z,74.22
2023-05-11T04:24:27.371Z,76.78
2023-05-11T04:26:57.993Z,76.00
2023-05-11T04:29:27.755Z,74.93
2023-05-11T04:31:55.056Z,76.28
2023-05-11T04:34:23.401Z,83.47
2023-05-11T04:36:51.705Z,65.88
2023-05-11T04:39:19.917Z,68.47
2023-05-11T04:41:47.190Z,74.22
2023-05-11T04:44:15.032Z,67.20
2023-05-11T04:46:42.363Z,63.65
2023-05-11T04:49:09.751Z,57.53
2023-05-11T04:51:37.131Z,67.53
2023-05-11T04:54:07.100Z,73.38
2023-05-11T04:56:35.264Z,61.67
2023-05-11T04:59:05.502Z,70.35
2023-05-11T05:01:33.084Z,64.88
2023-05-11T05:04:00.844Z,62.08
2023-05-11T05:06:28.837Z,56.35
2023-05-11T05:08:56.315Z,57.22
2023-05-11T05:11:24.496Z,59.22
2023-05-11T05:13:51.740Z,56.50
2023-05-11T05:16:18.972Z,52.03
2023-05-11T05:18:46.379Z,58.30
2023-05-11T05:21:13.605Z,58.47
2023-05-11T05:23:40.954Z,56.55
2023-05-11T05:26:08.230Z,61.92
2023-05-11T05:28:36.679Z,52.08
2023-05-11T05:31:03.959Z,56.95
2023-05-11T05:33:31.395Z,53.60
2023-05-11T05:35:58.626Z,57.03
2023-05-11T05:38:26.191Z,49.50
2023-05-11T05:40:53.299Z,46.55
2023-05-11T05:43:20.528Z,56.53
2023-05-11T05:45:47.821Z,47.53
2023-05-11T05:48:15.050Z,50.13
2023-05-11T05:50:42.535Z,47.58
2023-05-11T05:53:09.752Z,39.78
2023-05-11T05:55:36.948Z,44.85
2023-05-11T05:58:04.179Z,42.17
2023-05-11T06:00:31.294Z,41.72
2023-05-11T06:02:58.915Z,42.17
2023-05-11T06:05:26.426Z,49.30
2023-05-11T06:08:08.498Z,49.97
2023-05-11T06:10:38.050Z,53.63
2023-05-11T06:13:05.224Z,42.25
2023-05-11T06:15:32.450Z,41.92
2023-05-11T06:17:59.690Z,44.20
2023-05-11T06:20:26.993Z,42.90
2023-05-11T06:22:54.113Z,38.60
2023-05-11T06:25:21.318Z,39.10
2023-05-11T06:27:48.489Z,43.03
2023-05-11T06:30:15.868Z,34.30
2023-05-11T06:32:43.192Z,39.40
2023-05-11T06:35:10.541Z,39.97
2023-05-11T06:37:37.665Z,42.03
2023-05-11T06:40:05.407Z,39.17
2023-05-11T06:42:33.917Z,33.22
2023-05-11T06:45:01.085Z,38.05
2023-05-11T06:47:28.354Z,33.67
2023-05-11T06:49:55.695Z,37.13
2023-05-11T06:52:22.864Z,34.08
2023-05-11T06:54:49.930Z,36.72
2023-05-11T06:57:17.029Z,32.83
2023-05-11T06:59:44.691Z,35.55
2023-05-11T07:02:13.714Z,31.40
2023-05-11T07:04:40.925Z,34.17
2023-05-11T07:07:09.275Z,30.20
2023-05-11T07:09:36.632Z,32.22
2023-05-11T07:12:07.189Z,38.75
2023-05-11T07:14:34.486Z,36.85
2023-05-11T07:17:01.689Z,35.22
2023-05-11T07:19:28.860Z,37.05
2023-05-11T07:21:56.210Z,34.33
2023-05-11T07:24:23.429Z,38.08
2023-05-11T07:26:52.106Z,41.60
2023-05-11T07:29:19.423Z,40.63
2023-05-11T07:31:46.637Z,40.78
2023-05-11T07:34:13.875Z,47.78
2023-05-11T07:36:41.040Z,39.20
2023-05-11T07:39:08.941Z,37.65
2023-05-11T07:41:36.173Z,32.17
2023-05-11T07:44:03.322Z,31.48
2023-05-11T07:46:30.921Z,34.28
2023-05-11T07:49:13.714Z,31.13
2023-05-11T07:51:44.776Z,33.67
2023-05-11T07:54:11.958Z,32.38
2023-05-11T07:56:39.089Z,30.65
2023-05-11T07:59:06.608Z,30.83
2023-05-11T08:01:33.931Z,33.45
2023-05-11T08:04:01.111Z,36.30
2023-05-11T08:06:28.488Z,39.33
2023-05-11T08:08:55.791Z,36.85
2023-05-11T08:11:23.034Z,38.22
2023-05-11T08:13:50.354Z,38.60
2023-05-11T08:16:18.471Z,43.45
2023-05-11T08:18:45.705Z,39.75
2023-05-11T08:21:12.864Z,37.42
2023-05-11T08:23:40.262Z,45.92
2023-05-11T08:26:07.899Z,43.15
2023-05-11T08:28:37.964Z,45.25
2023-05-11T08:31:06.516Z,43.33
2023-05-11T08:33:38.145Z,47.10
2023-05-11T08:36:07.090Z,47.35
2023-05-11T08:38:36.114Z,43.95
2023-05-11T08:41:03.560Z,44.00
2023-05-11T08:43:32.805Z,52.08
2023-05-11T08:46:04.894Z,45.75
2023-05-11T08:48:32.848Z,51.22
2023-05-11T08:51:00.125Z,47.35
2023-05-11T08:53:29.528Z,43.28
2023-05-11T08:55:59.986Z,42.47
2023-05-11T08:58:28.201Z,47.05
2023-05-11T09:00:56.049Z,41.97
2023-05-11T09:03:23.782Z,40.63
2023-05-11T09:05:51.158Z,49.45
2023-05-11T09:08:20.255Z,44.75
2023-05-11T09:10:49.221Z,45.17
2023-05-11T09:13:16.793Z,37.10
2023-05-11T09:15:44.075Z,40.40
2023-05-11T09:18:11.217Z,37.58
2023-05-11T09:20:43.863Z,41.85
2023-05-11T09:23:11.321Z,39.90
2023-05-11T09:25:40.036Z,42.17
2023-05-11T09:28:07.141Z,36.78
2023-05-11T09:30:34.498Z,39.85
2023-05-11T09:33:02.882Z,34.75
2023-05-11T09:35:31.868Z,32.90
2023-05-11T09:38:02.547Z,30.98
2023-05-11T09:40:34.190Z,31.05
2023-05-11T09:43:16.205Z,28.13
2023-05-11T09:45:48.340Z,32.08
2023-05-11T09:48:21.495Z,37.13
2023-05-11T09:50:50.432Z,31.42
2023-05-11T09:53:18.132Z,29.50
2023-05-11T09:55:58.080Z,28.58
2023-05-11T09:58:25.231Z,31.05
2023-05-11T10:00:53.902Z,29.55
2023-05-11T10:03:21.884Z,30.30
2023-05-11T10:06:02.109Z,30.17
2023-05-11T10:08:31.083Z,27.88
2023-05-11T10:10:58.798Z,28.25
2023-05-11T10:13:27.520Z,27.83
2023-05-11T10:15:58.624Z,26.67
2023-05-11T10:18:26.797Z,25.92
2023-05-11T10:20:55.020Z,23.33
2023-05-11T10:23:22.538Z,22.08
2023-05-11T10:25:50.907Z,23.25
2023-05-11T10:28:18.520Z,20.15
2023-05-11T10:30:47.026Z,22.13
2023-05-11T10:33:14.616Z,22.35
2023-05-11T10:35:42.790Z,21.80
2023-05-11T10:38:10.716Z,15.98
2023-05-11T10:40:44.063Z,18.10
2023-05-11T10:43:30.590Z,20.52
2023-05-11T10:46:30.618Z,22.52
2023-05-11T10:49:35.677Z,24.65
2023-05-11T10:52:29.541Z,22.05
2023-05-11T10:55:13.801Z,20.10
2023-05-11T10:58:07.860Z,21.80
2023-05-11T11:01:01.273Z,20.15
2023-05-11T11:03:29.121Z,18.52
2023-05-11T11:06:00.009Z,19.25
2023-05-11T11:08:28.871Z,20.38
2023-05-11T11:10:56.584Z,19.48
2023-05-11T11:13:24.661Z,21.02
2023-05-11T11:15:55.202Z,20.90
2023-05-11T11:18:24.655Z,18.83
2023-05-11T11:20:53.928Z,17.48
2023-05-11T11:23:39.934Z,24.88
2023-05-11T11:26:08.436Z,17.40
2023-05-11T11:28:54.207Z,19.75
2023-05-11T11:31:29.208Z,22.08
2023-05-11T11:34:01.383Z,22.35
2023-05-11T11:36:56.319Z,21.75
2023-05-11T11:39:26.199Z,24.77
2023-05-11T11:42:04.591Z,21.55
2023-05-11T11:44:32.847Z,20.73
2023-05-11T11:47:16.458Z,17.55
2023-05-11T11:49:46.698Z,18.20
2023-05-11T11:52:15.412Z,18.00
2023-05-11T11:54:46.434Z,18.65
2023-05-11T11:57:35.049Z,23.85
2023-05-11T12:00:13.504Z,15.30
2023-05-11T12:02:45.705Z,17.80
2023-05-11T12:05:20.460Z,20.38
2023-05-11T12:07:49.767Z,15.05
2023-05-11T12:10:19.362Z,16.23
2023-05-11T12:12:51.138Z,17.45
2023-05-11T12:15:35.965Z,15.00
2023-05-11T12:18:03.825Z,27.17
2023-05-11T12:20:31.128Z,18.63
2023-05-11T12:22:58.382Z,14.77
2023-05-11T12:25:25.541Z,15.20
2023-05-11T12:28:03.804Z,16.05
2023-05-11T12:30:33.312Z,14.68
2023-05-11T12:33:02.070Z,14.43
2023-05-11T12:35:32.021Z,14.90
2023-05-11T12:38:02.469Z,14.20
2023-05-11T12:40:31.089Z,19.80
2023-05-11T12:42:59.940Z,17.65
2023-05-11T12:45:28.332Z,14.52
2023-05-11T12:47:57.498Z,12.48
2023-05-11T12:50:25.236Z,13.07
2023-05-11T12:52:53.076Z,12.73
2023-05-11T12:55:30.375Z,14.70
2023-05-11T12:58:18.934Z,17.75
2023-05-11T13:00:56.314Z,13.73
2023-05-11T13:03:25.319Z,11.90
2023-05-11T13:05:54.583Z,12.38
2023-05-11T13:08:21.952Z,15.43
2023-05-11T13:10:49.262Z,16.63
2023-05-11T13:13:29.591Z,15.18
2023-05-11T13:15:56.824Z,12.25
2023-05-11T13:18:24.242Z,14.38
2023-05-11T13:21:06.024Z,11.77
2023-05-11T13:23:33.305Z,13.13
2023-05-11T13:26:00.971Z,11.82
2023-05-11T13:28:28.241Z,11.90
2023-05-11T13:31:02.194Z,16.52
2023-05-11T13:33:29.548Z,13.68
2023-05-11T13:35:57.208Z,19.00
2023-05-11T13:38:24.394Z,13.27
2023-05-11T13:40:51.560Z,15.27
2023-05-11T13:43:18.803Z,20.00
2023-05-11T13:45:46.655Z,17.13
2023-05-11T13:48:13.952Z,22.42
2023-05-11T13:50:41.188Z,48.38
2023-05-11T13:53:08.337Z,19.58
2023-05-11T13:55:39.188Z,18.00
2023-05-11T13:58:06.656Z,22.90
2023-05-11T14:00:35.455Z,20.23
2023-05-11T14:03:02.825Z,19.40
2023-05-11T14:05:30.120Z,15.95
2023-05-11T14:07:57.246Z,16.40
2023-05-11T14:10:25.288Z,16.33
2023-05-11T14:12:52.458Z,15.70
2023-05-11T14:15:19.931Z,16.05
2023-05-11T14:17:50.030Z,16.10
2023-05-11T14:20:17.417Z,15.98
2023-05-11T14:22:44.680Z,14.25
2023-05-11T14:25:12.217Z,19.63
2023-05-11T14:27:39.417Z,17.10
2023-05-11T14:30:10.301Z,15.38
2023-05-11T14:32:37.805Z,10.52
2023-05-11T14:35:05.445Z,12.23
2023-05-11T14:37:32.775Z,11.32
2023-05-11T14:40:00.163Z,13.23
2023-05-11T14:42:27.513Z,10.77
2023-05-11T14:44:54.943Z,10.82
2023-05-11T14:47:22.888Z,9.23
2023-05-11T14:49:50.324Z,11.43
2023-05-11T14:52:17.773Z,16.08
2023-05-11T14:54:45.026Z,10.60
2023-05-11T14:57:12.616Z,9.60
2023-05-11T14:59:51.230Z,9.20
2023-05-11T15:02:26.356Z,9.10
2023-05-11T15:04:53.927Z,12.65
2023-05-11T15:07:21.448Z,12.93
2023-05-11T15:09:50.033Z,9.32
2023-05-11T15:12:17.401Z,34.90
2023-05-11T15:14:44.831Z,11.13
2023-05-11T15:17:12.261Z,10.80
2023-05-11T15:19:39.633Z,13.48
2023-05-11T15:22:06.837Z,11.43
2023-05-11T15:24:34.189Z,10.63
2023-05-11T15:27:01.500Z,10.23
2023-05-11T15:29:28.894Z,10.57
2023-05-11T15:31:56.281Z,10.80
2023-05-11T15:34:23.883Z,8.98
2023-05-11T15:36:51.184Z,9.55
2023-05-11T15:39:21.417Z,10.18
2023-05-11T15:41:48.681Z,7.80
2023-05-11T15:44:16.454Z,13.50
2023-05-11T15:46:43.810Z,13.35
2023-05-11T15:49:11.199Z,7.57
2023-05-11T15:51:38.524Z,11.90
2023-05-11T15:54:05.655Z,10.45
2023-05-11T15:56:32.937Z,6.80
2023-05-11T15:59:00.335Z,9.63
2023-05-11T16:01:27.744Z,11.70
2023-05-11T16:03:56.773Z,7.00
2023-05-11T16:06:24.224Z,11.93
2023-05-11T16:08:53.191Z,6.07
2023-05-11T16:11:20.533Z,8.27
2023-05-11T16:13:48.077Z,6.22
2023-05-11T16:16:15.872Z,9.07
2023-05-11T16:18:43.357Z,8.57
2023-05-11T16:21:10.625Z,5.38
2023-05-11T16:23:37.855Z,5.88
2023-05-11T16:26:05.169Z,6.30
2023-05-11T16:28:33.462Z,5.00
2023-05-11T16:31:01.393Z,5.45
2023-05-11T16:33:28.748Z,8.30
2023-05-11T16:35:56.165Z,9.10
2023-05-11T16:38:23.931Z,5.15
2023-05-11T16:40:51.403Z,4.03
2023-05-11T16:43:18.638Z,3.22
2023-05-11T16:45:46.014Z,4.07
2023-05-11T16:48:13.251Z,7.43
2023-05-11T16:50:40.550Z,4.00
2023-05-11T16:53:07.843Z,9.27
2023-05-11T16:55:35.249Z,4.93
2023-05-11T16:58:02.557Z,2.30
2023-05-11T17:00:30.086Z,3.50
2023-05-11T17:02:57.595Z,3.85
2023-05-11T17:05:24.876Z,1.98
2023-05-11T17:07:53.045Z,4.60
2023-05-11T17:10:20.686Z,6.53
2023-05-11T17:12:48.205Z,2.00
2023-05-11T17:15:15.496Z,1.48
2023-05-11T17:17:42.966Z,6.88
2023-05-11T17:20:10.479Z,2.58
2023-05-11T17:22:38.061Z,6.82
2023-05-11T17:25:06.709Z,7.15
2023-05-11T17:27:35.568Z,2.38
2023-05-11T17:30:03.041Z,8.82
2023-05-11T17:32:30.595Z,3.60
2023-05-11T17:34:58.498Z,1.73
2023-05-11T17:37:31.662Z,3.50
2023-05-11T17:40:00.340Z,5.68
2023-05-11T17:42:30.734Z,2.15
2023-05-11T17:44:58.307Z,2.88
2023-05-11T17:47:26.642Z,4.55
2023-05-11T17:49:54.202Z,1.70
2023-05-11T17:52:22.080Z,6.93
2023-05-11T17:54:49.369Z,2.05
2023-05-11T17:57:17.169Z,3.55
2023-05-11T17:59:47.681Z,1.83
2023-05-11T18:02:15.392Z,2.25
2023-05-11T18:04:42.975Z,1.95
2023-05-11T18:07:10.697Z,1.55
2023-05-11T18:09:37.981Z,2.70
2023-05-11T18:12:05.917Z,4.32
2023-05-11T18:14:33.230Z,4.28
2023-05-11T18:17:00.396Z,2.65
2023-05-11T18:19:28.962Z,10.07
2023-05-11T18:21:56.589Z,6.57
2023-05-11T18:24:24.340Z,1.52
2023-05-11T18:26:52.463Z,5.45
2023-05-11T18:29:22.215Z,5.22
2023-05-11T18:31:50.642Z,4.60
2023-05-11T18:34:18.196Z,4.65
2023-05-11T18:36:46.047Z,2.70
2023-05-11T18:39:14.826Z,11.52
2023-05-11T18:41:42.264Z,3.10
2023-05-11T18:44:11.668Z,6.47
2023-05-11T18:46:39.092Z,6.72
2023-05-11T18:49:06.677Z,1.20
2023-05-11T18:51:33.883Z,4.47
2023-05-11T18:54:01.366Z,3.45
2023-05-11T18:56:28.781Z,6.85
2023-05-11T18:58:56.090Z,2.63
2023-05-11T19:01:30.274Z,2.30
2023-05-11T19:04:03.605Z,2.25
2023-05-11T19:06:30.764Z,5.57
2023-05-11T19:08:57.906Z,3.63
2023-05-11T19:11:25.877Z,2.80
2023-05-11T19:13:53.395Z,1.67
2023-05-11T19:16:21.367Z,1.45
2023-05-11T19:18:49.907Z,4.13
2023-05-11T19:21:18.441Z,3.25
2023-05-11T19:23:45.705Z,2.38
2023-05-11T19:26:12.795Z,3.60
2023-05-11T19:28:40.175Z,3.97
2023-05-11T19:31:07.620Z,4.30
2023-05-11T19:33:35.035Z,5.60
2023-05-11T19:36:02.483Z,11.00
2023-05-11T19:38:30.547Z,4.30
2023-05-11T19:40:58.469Z,8.30
2023-05-11T19:43:26.380Z,5.78
2023-05-11T19:45:53.716Z,2.75
2023-05-11T19:48:23.948Z,8.50
2023-05-11T19:50:51.337Z,3.45
2023-05-11T19:53:18.568Z,5.25
2023-05-11T19:55:47.908Z,4.78
2023-05-11T19:58:15.726Z,4.85
2023-05-11T20:00:43.387Z,5.97
2023-05-11T20:03:10.736Z,2.20
2023-05-11T20:05:38.428Z,4.55
2023-05-11T20:08:06.377Z,3.03
2023-05-11T20:10:33.944Z,3.85
2023-05-11T20:13:04.171Z,5.05
2023-05-11T20:15:31.625Z,3.92
2023-05-11T20:17:59.149Z,3.00
2023-05-11T20:20:26.867Z,4.43
2023-05-11T20:22:54.038Z,3.58
2023-05-11T20:25:22.032Z,3.55
2023-05-11T20:27:49.279Z,5.10
2023-05-11T20:30:16.871Z,2.03
2023-05-11T20:35:14.758Z,3.97
2023-05-11T20:37:42.072Z,6.45
2023-05-11T20:40:09.957Z,4.60
2023-05-11T20:42:38.656Z,4.88
2023-05-11T20:45:07.658Z,2.22
2023-05-11T20:47:35.084Z,4.32
2023-05-11T20:50:02.556Z,6.93
2023-05-11T20:52:30.483Z,3.00
2023-05-11T20:54:57.709Z,3.92
2023-05-11T20:57:25.210Z,3.55
2023-05-11T21:02:22.726Z,3.28
2023-05-11T21:04:50.705Z,6.70
2023-05-11T21:07:17.917Z,3.58
2023-05-11T21:09:45.317Z,5.38
2023-05-11T21:12:12.899Z,2.95
2023-05-11T21:14:40.369Z,6.28
2023-05-11T21:17:07.698Z,3.58
2023-05-11T21:19:35.218Z,2.45
2023-05-11T21:22:02.625Z,2.97
2023-05-11T21:24:29.930Z,5.22
2023-05-11T21:26:57.182Z,7.40
2023-05-11T21:29:24.641Z,3.40
2023-05-11T21:31:52.237Z,9.02
2023-05-11T21:34:19.533Z,2.53
2023-05-11T21:36:46.940Z,3.17
2023-05-11T21:39:14.188Z,21.77
2023-05-11T21:41:41.461Z,3.25
2023-05-11T21:44:08.984Z,11.88
2023-05-11T21:46:36.315Z,3.00
2023-05-11T21:49:06.731Z,7.28
2023-05-11T21:51:34.110Z,3.42
2023-05-11T21:54:01.432Z,3.85
2023-05-11T21:56:28.699Z,3.15
2023-05-11T21:58:55.998Z,2.03
2023-05-11T22:01:23.334Z,2.53
2023-05-11T22:03:50.959Z,3.70
2023-05-11T22:06:18.234Z,2.80
2023-05-11T22:08:47.800Z,2.70
2023-05-11T22:11:16.220Z,4.22
2023-05-11T22:13:44.722Z,3.60
2023-05-11T22:16:12.000Z,3.20
2023-05-11T22:18:40.413Z,5.88
2023-05-11T22:21:07.793Z,6.85
2023-05-11T22:23:35.672Z,7.53
2023-05-11T22:26:03.939Z,3.95
2023-05-11T22:28:31.232Z,2.35
2023-05-11T22:31:01.284Z,2.75
2023-05-11T22:33:28.635Z,2.67
2023-05-11T22:35:56.006Z,4.18
2023-05-11T22:38:23.631Z,3.50
2023-05-11T22:40:50.703Z,5.72
2023-05-11T22:43:18.102Z,5.00
2023-05-11T22:45:45.530Z,4.30
2023-05-11T22:48:12.623Z,5.32
2023-05-11T22:50:46.828Z,2.55
2023-05-11T22:53:15.062Z,2.83
2023-05-11T22:55:42.440Z,2.53
2023-05-11T22:58:09.714Z,2.60
2023-05-11T23:00:37.550Z,3.90
2023-05-11T23:03:04.929Z,3.47
2023-05-11T23:05:32.192Z,3.55
2023-05-11T23:08:00.180Z,4.10
2023-05-11T23:10:28.999Z,5.00
2023-05-11T23:12:56.634Z,3.75
2023-05-11T23:15:23.880Z,3.47
2023-05-11T23:17:51.232Z,5.03
2023-05-11T23:20:18.750Z,9.00
2023-05-11T23:22:46.285Z,4.43
2023-05-11T23:25:13.588Z,4.35
2023-05-11T23:27:40.839Z,6.43
2023-05-11T23:30:08.613Z,3.45
2023-05-11T23:32:35.930Z,6.20
2023-05-11T23:35:03.041Z,5.10
2023-05-11T23:37:30.168Z,5.72
2023-05-11T23:39:57.587Z,5.45
2023-05-11T23:42:24.805Z,5.90
2023-05-11T23:44:52.111Z,2.67
2023-05-11T23:47:19.510Z,4.45
2023-05-11T23:49:46.591Z,4.20
2023-05-11T23:52:13.851Z,4.97
2023-05-11T23:54:41.081Z,7.95
2023-05-11T23:57:08.342Z,5.18
2023-05-11T23:59:35.593Z,3.35
